Time;durP1;ratioP1;P1;durP2;ratioP2;P2;SDS_P1;SDS_P2;PMS_P1;PMS_P2;Temp;Humidity;BMP_temperature;BMP_pressure;BME280_temperature;BME280_humidity;BME280_pressure;Samples;Min_cycle;Max_cycle;Signal;HPM_P1;HPM_P2
2022/11/20 00:01:17;;;;;;;22.52;10.98;;;5.90;99.90;;;;;;4972226;28;20023;-93
2022/11/20 00:03:43;;;;;;;26.13;11.05;;;5.90;99.90;;;;;;4984369;28;20035;-93
2022/11/20 00:06:15;;;;;;;28.38;11.25;;;5.90;99.90;;;;;;4976428;28;20023;-94
2022/11/20 00:08:41;;;;;;;26.20;11.60;;;5.90;99.90;;;;;;4965530;28;20074;-94
2022/11/20 00:11:18;;;;;;;33.40;11.93;;;5.90;99.90;;;;;;4958813;28;20035;-93
2022/11/20 00:13:45;;;;;;;30.30;11.80;;;6.00;99.90;;;;;;4976599;28;20023;-94
2022/11/20 00:16:16;;;;;;;31.00;12.50;;;5.90;99.90;;;;;;4967148;28;20039;-95
2022/11/20 00:18:42;;;;;;;25.42;11.50;;;5.90;99.90;;;;;;4952818;28;20099;-93
2022/11/20 00:21:21;;;;;;;29.77;13.02;;;5.90;99.90;;;;;;4961351;28;20465;-93
2022/11/20 00:23:47;;;;;;;28.05;11.07;;;5.80;99.90;;;;;;4976964;28;20057;-95
2022/11/20 00:26:15;;;;;;;27.58;11.88;;;5.80;99.90;;;;;;4964712;28;20039;-94
2022/11/20 00:28:42;;;;;;;29.95;12.05;;;5.80;99.90;;;;;;4968522;28;20019;-94
2022/11/20 00:31:15;;;;;;;32.58;11.25;;;5.80;99.90;;;;;;4953486;29;20047;-94
2022/11/20 00:33:42;;;;;;;47.88;15.23;;;5.80;99.90;;;;;;4956275;28;20085;-92
2022/11/20 00:36:13;;;;;;;36.78;14.80;;;5.80;99.90;;;;;;4987674;28;20030;-93
2022/11/20 00:38:39;;;;;;;34.55;12.55;;;5.80;99.90;;;;;;4969878;28;20037;-94
2022/11/20 00:41:08;;;;;;;29.80;13.27;;;5.80;99.90;;;;;;4976497;28;20067;-94
2022/11/20 00:43:37;;;;;;;39.33;13.63;;;5.80;99.90;;;;;;4983737;28;20010;-93
2022/11/20 00:46:06;;;;;;;30.17;13.23;;;5.80;99.90;;;;;;4984017;28;20116;-95
2022/11/20 00:48:32;;;;;;;33.53;12.73;;;5.80;99.90;;;;;;4980692;28;20027;-95
2022/11/20 00:50:58;;;;;;;32.67;12.85;;;5.80;99.90;;;;;;4975441;28;20025;-90
2022/11/20 00:53:24;;;;;;;31.05;13.02;;;5.80;99.90;;;;;;4968838;28;20077;-94
2022/11/20 00:56:06;;;;;;;26.23;13.52;;;5.80;99.90;;;;;;4959266;28;20038;-94
2022/11/20 00:58:37;;;;;;;34.53;13.07;;;5.80;99.90;;;;;;4957882;28;20027;-94
2022/11/20 01:01:11;;;;;;;36.13;13.55;;;5.80;99.90;;;;;;4967091;28;20019;-95
2022/11/20 01:03:39;;;;;;;29.02;12.50;;;5.80;99.90;;;;;;4956372;28;20042;-95
2022/11/20 01:06:09;;;;;;;34.25;13.18;;;5.90;99.90;;;;;;4955227;28;20033;-96
2022/11/20 01:08:36;;;;;;;30.90;13.75;;;5.90;99.90;;;;;;4969138;28;20018;-94
2022/11/20 01:11:03;;;;;;;30.77;12.45;;;5.90;99.90;;;;;;4963841;28;20027;-94
2022/11/20 01:13:39;;;;;;;28.08;11.57;;;5.90;99.90;;;;;;4962795;28;20027;-95
2022/11/20 01:16:17;;;;;;;30.45;11.73;;;5.90;99.90;;;;;;4965209;28;20042;-95
2022/11/20 01:18:45;;;;;;;32.53;12.55;;;5.90;99.90;;;;;;4978149;28;20035;-95
2022/11/20 01:21:16;;;;;;;28.05;12.60;;;5.90;99.90;;;;;;4958148;28;20014;-91
2022/11/20 01:23:43;;;;;;;37.38;12.23;;;5.90;99.90;;;;;;4968188;28;20514;-95
2022/11/20 01:26:15;;;;;;;35.33;12.48;;;5.90;99.90;;;;;;4971455;28;20027;-95
2022/11/20 01:28:42;;;;;;;36.55;13.05;;;5.90;99.90;;;;;;4958942;28;20058;-94
2022/11/20 01:31:17;;;;;;;31.08;12.60;;;5.90;99.90;;;;;;4959093;28;20026;-93
2022/11/20 01:33:43;;;;;;;35.33;12.82;;;5.90;99.90;;;;;;4958775;28;20027;-95
2022/11/20 01:36:10;;;;;;;32.75;12.30;;;5.90;99.90;;;;;;4961920;28;20070;-92
2022/11/20 01:38:39;;;;;;;31.08;12.88;;;5.80;99.90;;;;;;4959276;28;20067;-94
2022/11/20 01:41:05;;;;;;;30.02;13.60;;;5.90;99.90;;;;;;4978057;28;20051;-93
2022/11/20 01:43:31;;;;;;;31.65;11.55;;;5.90;99.90;;;;;;4967174;28;20007;-92
2022/11/20 01:46:13;;;;;;;37.10;14.20;;;5.80;99.90;;;;;;4984653;28;20038;-95
2022/11/20 01:48:43;;;;;;;31.52;12.02;;;5.80;99.90;;;;;;4978489;28;20027;-90
2022/11/20 01:51:33;;;;;;;25.98;12.57;;;5.90;99.90;;;;;;4961020;28;20526;-93
2022/11/20 01:54:04;;;;;;;30.05;12.18;;;5.90;99.90;;;;;;4970087;28;20015;-95
2022/11/20 01:56:34;;;;;;;35.13;12.73;;;5.90;99.90;;;;;;4963286;28;20039;-94
2022/11/20 01:59:02;;;;;;;25.08;12.02;;;5.90;99.90;;;;;;4966516;28;20094;-94
2022/11/20 02:01:28;;;;;;;35.35;12.73;;;5.90;99.90;;;;;;4958826;28;20034;-95
2022/11/20 02:03:54;;;;;;;36.95;12.75;;;6.00;99.90;;;;;;4972480;28;20023;-94
2022/11/20 02:06:32;;;;;;;27.92;11.10;;;6.00;99.90;;;;;;4963635;28;20031;-91
2022/11/20 02:08:58;;;;;;;27.98;11.55;;;6.00;99.90;;;;;;4949126;28;20043;-96
2022/11/20 02:11:24;;;;;;;24.13;12.05;;;6.10;99.90;;;;;;4961686;28;20078;-94
2022/11/20 02:13:50;;;;;;;27.38;12.13;;;6.10;99.90;;;;;;4961748;28;20035;-95
2022/11/20 02:16:16;;;;;;;31.50;11.55;;;6.10;99.90;;;;;;4978550;28;20038;-95
2022/11/20 02:18:43;;;;;;;31.73;13.23;;;6.10;99.90;;;;;;4973071;28;20030;-95
2022/11/20 02:21:24;;;;;;;25.52;11.60;;;6.20;99.90;;;;;;4950159;28;20105;-93
2022/11/20 02:23:53;;;;;;;31.95;12.43;;;6.10;99.90;;;;;;4972666;28;20039;-95
2022/11/20 02:26:21;;;;;;;29.60;10.55;;;6.10;99.90;;;;;;4970340;28;20102;-94
2022/11/20 02:28:47;;;;;;;30.92;11.00;;;6.10;99.90;;;;;;4963737;28;20038;-96
2022/11/20 02:31:13;;;;;;;29.98;10.73;;;6.10;99.90;;;;;;4987761;28;20019;-93
2022/11/20 02:33:38;;;;;;;31.45;12.50;;;6.10;99.90;;;;;;4992233;28;20030;-94
2022/11/20 02:36:04;;;;;;;27.58;10.50;;;6.10;99.90;;;;;;4980781;28;20094;-95
2022/11/20 02:38:33;;;;;;;29.40;12.50;;;6.10;99.90;;;;;;4967060;28;20016;-93
2022/11/20 02:40:58;;;;;;;26.17;10.98;;;6.00;99.90;;;;;;4962762;28;20031;-94
2022/11/20 02:43:24;;;;;;;32.15;12.88;;;6.00;99.90;;;;;;4969766;28;20046;-95
2022/11/20 02:45:49;;;;;;;29.52;11.68;;;6.00;99.90;;;;;;4970317;28;20015;-93
2022/11/20 02:48:15;;;;;;;32.95;12.13;;;6.00;99.90;;;;;;4975684;28;20476;-93
2022/11/20 02:50:41;;;;;;;24.20;10.15;;;5.90;99.90;;;;;;4985815;28;20006;-94
2022/11/20 02:53:07;;;;;;;21.73;10.10;;;5.90;99.90;;;;;;4977598;28;20030;-94
2022/11/20 02:55:33;;;;;;;31.35;11.13;;;5.90;99.90;;;;;;4981383;28;20026;-93
2022/11/20 02:57:58;;;;;;;28.27;10.65;;;5.90;99.90;;;;;;4971569;28;20400;-94
2022/11/20 03:00:24;;;;;;;24.05;9.95;;;5.90;99.90;;;;;;4974421;28;20030;-92
2022/11/20 03:02:50;;;;;;;25.20;10.25;;;5.90;99.90;;;;;;4973779;28;20473;-94
2022/11/20 03:05:15;;;;;;;21.58;9.82;;;5.90;99.90;;;;;;4975732;28;20480;-93
2022/11/20 03:07:43;;;;;;;25.08;9.77;;;5.90;99.90;;;;;;4966413;28;20468;-93
2022/11/20 03:10:08;;;;;;;31.17;9.38;;;5.80;99.90;;;;;;4971146;28;20027;-94
2022/11/20 03:12:34;;;;;;;21.42;9.20;;;5.80;99.90;;;;;;4983754;28;20051;-92
2022/11/20 03:15:00;;;;;;;18.08;8.98;;;5.80;99.90;;;;;;4994270;28;20050;-93
2022/11/20 03:17:25;;;;;;;25.38;8.88;;;5.80;99.90;;;;;;4997959;28;20045;-94
2022/11/20 03:19:51;;;;;;;23.38;7.97;;;5.90;99.90;;;;;;4981240;28;20031;-95
2022/11/20 03:22:16;;;;;;;21.35;8.40;;;5.80;99.90;;;;;;4985842;28;20034;-94
2022/11/20 03:24:42;;;;;;;24.15;7.88;;;5.80;99.90;;;;;;4972765;28;20101;-95
2022/11/20 03:27:08;;;;;;;14.98;7.50;;;5.80;99.90;;;;;;4971303;28;20023;-92
2022/11/20 03:29:35;;;;;;;16.33;6.72;;;5.80;99.90;;;;;;4965630;28;20491;-95
2022/11/20 03:32:01;;;;;;;19.30;7.57;;;5.80;99.90;;;;;;4966382;28;20057;-95
2022/11/20 03:34:26;;;;;;;18.77;7.57;;;5.80;99.90;;;;;;4967639;28;20427;-94
2022/11/20 03:36:52;;;;;;;18.00;6.88;;;5.80;99.90;;;;;;4966678;28;20058;-93
2022/11/20 03:39:17;;;;;;;21.70;6.43;;;5.80;99.90;;;;;;4977872;28;20049;-95
2022/11/20 03:41:43;;;;;;;22.92;7.93;;;5.80;99.90;;;;;;4981173;28;20057;-95
2022/11/20 03:44:13;;;;;;;19.45;7.00;;;5.80;99.90;;;;;;4981197;28;20144;-96
2022/11/20 03:46:39;;;;;;;18.35;6.93;;;5.80;99.90;;;;;;4984795;28;20021;-95
2022/11/20 03:49:05;;;;;;;22.17;6.55;;;5.80;99.90;;;;;;4969104;28;20046;-94
2022/11/20 03:51:32;;;;;;;18.00;6.32;;;5.80;99.90;;;;;;4976632;28;20480;-95
2022/11/20 03:54:00;;;;;;;15.05;6.35;;;5.70;99.90;;;;;;4983502;28;20558;-95
2022/11/20 03:56:31;;;;;;;17.83;7.50;;;5.70;99.90;;;;;;4990574;28;20050;-93
2022/11/20 03:58:58;;;;;;;22.00;6.53;;;5.70;99.90;;;;;;4974067;28;20046;-93
2022/11/20 04:01:29;;;;;;;12.93;5.70;;;5.70;99.90;;;;;;4975186;28;20114;-95
2022/11/20 04:03:56;;;;;;;15.52;5.88;;;5.70;99.90;;;;;;4997263;28;20026;-95
2022/11/20 04:06:30;;;;;;;13.38;5.43;;;5.70;99.90;;;;;;4971600;28;20026;-96
2022/11/20 04:08:57;;;;;;;12.68;5.38;;;5.70;99.90;;;;;;4974840;28;20022;-94
2022/11/20 04:11:36;;;;;;;13.85;5.47;;;5.70;99.90;;;;;;4969408;28;20472;-94
2022/11/20 04:14:04;;;;;;;11.27;4.82;;;5.70;99.90;;;;;;4975965;28;20096;-93
2022/11/20 04:16:35;;;;;;;8.45;4.90;;;5.70;99.90;;;;;;4971603;28;20122;-92
2022/11/20 04:19:03;;;;;;;12.52;4.65;;;5.70;99.90;;;;;;4987474;28;20021;-93
2022/11/20 04:21:29;;;;;;;8.20;4.65;;;5.70;99.90;;;;;;4979553;28;20030;-94
2022/11/20 04:23:55;;;;;;;10.32;4.80;;;5.70;99.90;;;;;;4972365;28;20029;-94
2022/11/20 04:26:23;;;;;;;12.35;5.88;;;5.70;99.90;;;;;;4966612;28;20117;-95
2022/11/20 04:28:49;;;;;;;13.57;5.32;;;5.70;99.90;;;;;;4967856;28;20050;-94
2022/11/20 04:31:20;;;;;;;6.85;3.75;;;5.70;99.90;;;;;;4969511;28;20058;-94
2022/11/20 04:33:46;;;;;;;8.30;3.63;;;5.70;99.90;;;;;;4966037;28;20094;-95
2022/11/20 04:36:23;;;;;;;8.57;3.92;;;5.70;99.90;;;;;;4975233;28;20034;-95
2022/11/20 04:39:12;;;;;;;6.85;3.70;;;5.80;99.90;;;;;;4966455;28;20094;-94
2022/11/20 04:41:38;;;;;;;5.30;3.50;;;5.80;99.90;;;;;;4956436;28;20054;-95
2022/11/20 04:44:05;;;;;;;7.63;3.58;;;5.80;99.90;;;;;;4938655;29;20061;-94
2022/11/20 04:46:40;;;;;;;4.95;3.30;;;5.80;99.90;;;;;;4943979;29;20039;-91
2022/11/20 04:49:06;;;;;;;7.20;3.50;;;5.70;99.90;;;;;;4940874;29;20019;-95
2022/11/20 04:51:32;;;;;;;7.25;2.67;;;5.80;99.90;;;;;;4948711;28;20027;-89
2022/11/20 04:53:58;;;;;;;4.72;2.75;;;5.80;99.90;;;;;;4976662;28;20007;-89
2022/11/20 04:56:24;;;;;;;6.05;2.80;;;5.80;99.90;;;;;;4977614;28;20029;-94
2022/11/20 04:58:49;;;;;;;5.15;2.50;;;5.80;99.90;;;;;;4949528;28;20019;-94
2022/11/20 05:01:17;;;;;;;4.03;2.35;;;5.90;99.90;;;;;;4977168;28;20031;-94
2022/11/20 05:03:45;;;;;;;3.08;2.30;;;5.90;99.90;;;;;;4953863;29;20023;-92
2022/11/20 05:06:13;;;;;;;2.20;1.85;;;5.90;99.90;;;;;;4957149;28;20022;-94
2022/11/20 05:08:43;;;;;;;3.47;2.50;;;5.90;99.90;;;;;;4981173;28;20008;-87
2022/11/20 05:11:37;;;;;;;3.13;2.03;;;5.90;99.90;;;;;;4979748;28;20044;-90
2022/11/20 05:14:02;;;;;;;4.30;2.58;;;5.90;99.90;;;;;;4979002;28;20015;-92
2022/11/20 05:16:34;;;;;;;4.97;2.00;;;6.00;99.90;;;;;;4984529;28;20042;-93
2022/11/20 05:18:59;;;;;;;1.80;1.50;;;6.00;99.90;;;;;;4948759;29;20555;-94
2022/11/20 05:21:25;;;;;;;2.63;1.75;;;6.00;99.90;;;;;;4971373;28;20023;-93
2022/11/20 05:23:54;;;;;;;1.45;1.13;;;6.10;99.90;;;;;;4949473;29;20007;-95
2022/11/20 05:26:21;;;;;;;1.35;0.90;;;6.00;99.90;;;;;;4956337;29;20023;-94
2022/11/20 05:28:50;;;;;;;2.88;1.10;;;6.10;99.90;;;;;;4947635;28;20038;-91
2022/11/20 05:31:19;;;;;;;1.17;1.10;;;6.10;99.90;;;;;;4960719;29;20011;-91
2022/11/20 05:33:47;;;;;;;1.98;1.30;;;6.10;99.90;;;;;;4963578;28;20050;-92
2022/11/20 05:36:17;;;;;;;1.40;1.00;;;6.10;99.90;;;;;;4972553;28;20053;-91
2022/11/20 05:38:44;;;;;;;1.63;1.00;;;6.20;99.90;;;;;;4968343;28;20031;-93
2022/11/20 05:41:12;;;;;;;3.97;1.30;;;6.20;99.90;;;;;;4943758;29;20051;-93
2022/11/20 05:43:40;;;;;;;1.88;1.50;;;6.20;99.90;;;;;;4966919;29;20561;-94
2022/11/20 05:46:08;;;;;;;1.40;1.02;;;6.20;99.90;;;;;;4962441;28;20061;-94
2022/11/20 05:48:34;;;;;;;2.00;1.10;;;6.20;99.90;;;;;;4972272;28;20094;-96
2022/11/20 05:51:02;;;;;;;1.25;1.13;;;6.30;99.90;;;;;;4998131;28;20060;-94
2022/11/20 05:53:28;;;;;;;1.10;1.00;;;6.20;99.90;;;;;;4962588;28;20035;-96
2022/11/20 05:56:01;;;;;;;1.20;1.10;;;6.30;99.90;;;;;;4985571;28;20117;-95
2022/11/20 05:58:27;;;;;;;1.55;1.00;;;6.30;99.90;;;;;;4986730;28;20039;-95
2022/11/20 06:00:53;;;;;;;3.28;1.30;;;6.30;99.90;;;;;;4961994;28;20033;-94
2022/11/20 06:03:18;;;;;;;3.50;0.90;;;6.30;99.90;;;;;;4964730;28;20027;-94
2022/11/20 06:05:44;;;;;;;2.08;0.98;;;6.30;99.90;;;;;;4992701;28;20023;-94
2022/11/20 06:08:10;;;;;;;1.38;1.00;;;6.30;99.90;;;;;;4956857;28;20054;-94
2022/11/20 06:10:35;;;;;;;1.58;1.27;;;6.40;99.90;;;;;;4982552;28;20051;-93
2022/11/20 06:13:01;;;;;;;0.75;0.75;;;6.40;99.90;;;;;;4956930;28;20038;-95
2022/11/20 06:15:27;;;;;;;1.67;0.90;;;6.40;99.90;;;;;;4957325;28;20031;-94
2022/11/20 06:17:53;;;;;;;1.08;0.88;;;6.40;99.90;;;;;;4980227;28;20405;-95
2022/11/20 06:20:20;;;;;;;1.27;1.10;;;6.40;99.90;;;;;;4983231;28;20034;-95
2022/11/20 06:22:45;;;;;;;1.67;1.05;;;6.40;99.90;;;;;;4983525;28;20030;-93
2022/11/20 06:25:11;;;;;;;1.05;0.98;;;6.40;99.90;;;;;;4984097;28;20092;-96
2022/11/20 06:27:37;;;;;;;1.38;1.15;;;6.40;99.90;;;;;;4958393;29;20499;-94
2022/11/20 06:30:03;;;;;;;1.00;0.90;;;6.40;99.90;;;;;;4969350;28;20247;-94
2022/11/20 06:32:29;;;;;;;2.10;1.55;;;6.40;99.90;;;;;;4967729;28;20028;-95
2022/11/20 06:34:55;;;;;;;3.08;1.45;;;6.50;99.90;;;;;;4969692;28;20027;-95
2022/11/20 06:37:20;;;;;;;1.38;1.10;;;6.50;99.90;;;;;;4990593;28;20042;-95
2022/11/20 06:39:46;;;;;;;2.65;1.00;;;6.50;99.90;;;;;;4966536;28;20015;-95
2022/11/20 06:42:11;;;;;;;2.17;1.13;;;6.50;99.90;;;;;;4964854;28;20050;-95
2022/11/20 06:44:37;;;;;;;6.57;1.70;;;6.50;99.90;;;;;;4963484;29;20043;-95
2022/11/20 06:47:03;;;;;;;1.48;0.80;;;6.50;99.90;;;;;;4967464;28;20043;-96
2022/11/20 06:49:29;;;;;;;4.32;1.60;;;6.50;99.90;;;;;;4993210;28;20102;-94
2022/11/20 06:51:54;;;;;;;4.03;1.52;;;6.50;99.90;;;;;;4975254;28;20086;-95
2022/11/20 06:54:20;;;;;;;5.53;1.80;;;6.50;99.90;;;;;;4964785;28;20030;-95
2022/11/20 06:56:49;;;;;;;10.82;2.60;;;6.50;99.90;;;;;;4974049;28;20103;-96
2022/11/20 06:59:14;;;;;;;11.98;2.17;;;6.60;99.90;;;;;;4956207;28;20107;-96
2022/11/20 07:01:41;;;;;;;8.13;2.35;;;6.60;99.90;;;;;;4966452;28;20031;-95
2022/11/20 07:04:07;;;;;;;9.75;2.08;;;6.60;99.90;;;;;;4991398;28;20419;-95
2022/11/20 07:06:33;;;;;;;9.88;3.55;;;6.60;99.90;;;;;;4968410;28;20118;-96
2022/11/20 07:08:58;;;;;;;9.93;2.38;;;6.60;99.90;;;;;;4996771;28;20070;-95
2022/11/20 07:11:24;;;;;;;11.57;2.60;;;6.60;99.90;;;;;;4964169;28;20038;-95
2022/11/20 07:13:50;;;;;;;7.55;2.13;;;6.60;99.90;;;;;;4993502;28;20014;-93
2022/11/20 07:16:16;;;;;;;9.02;2.72;;;6.60;99.90;;;;;;4974166;28;20034;-93
2022/11/20 07:18:43;;;;;;;7.40;2.78;;;6.60;99.90;;;;;;4964534;28;20423;-94
2022/11/20 07:21:10;;;;;;;11.75;3.45;;;6.70;99.90;;;;;;4940081;28;20026;-93
2022/11/20 07:23:38;;;;;;;11.23;3.28;;;6.70;99.90;;;;;;4946120;28;20034;-95
2022/11/20 07:26:09;;;;;;;10.48;3.60;;;6.70;99.90;;;;;;4971429;28;20472;-92
2022/11/20 07:28:36;;;;;;;11.63;3.83;;;6.70;99.90;;;;;;4969961;28;20027;-94
2022/11/20 07:31:02;;;;;;;13.20;4.28;;;6.70;99.90;;;;;;4985685;28;20232;-94
2022/11/20 07:33:28;;;;;;;12.40;3.97;;;6.70;99.90;;;;;;4986725;28;20038;-92
2022/11/20 07:35:54;;;;;;;19.35;4.78;;;6.70;99.90;;;;;;4952709;28;20031;-94
2022/11/20 07:38:20;;;;;;;18.13;4.97;;;6.70;99.90;;;;;;4980204;28;20063;-96
2022/11/20 07:40:46;;;;;;;15.98;5.15;;;6.80;99.90;;;;;;4934399;28;20109;-93
2022/11/20 07:43:17;;;;;;;20.73;6.38;;;6.70;99.90;;;;;;4957568;28;20035;-94
2022/11/20 07:45:46;;;;;;;26.55;7.88;;;6.80;99.90;;;;;;4966732;28;20494;-95
2022/11/20 07:48:11;;;;;;;12.07;5.38;;;6.80;99.90;;;;;;4972326;28;20491;-95
2022/11/20 07:50:39;;;;;;;19.88;6.50;;;6.80;99.90;;;;;;4961955;29;20015;-94
2022/11/20 07:53:06;;;;;;;19.25;5.70;;;6.80;99.90;;;;;;4969489;29;20054;-95
2022/11/20 07:55:32;;;;;;;25.02;8.63;;;6.80;99.90;;;;;;4973917;28;20031;-94
2022/11/20 07:58:06;;;;;;;25.85;7.15;;;6.80;99.90;;;;;;4999780;28;20058;-95
2022/11/20 08:00:32;;;;;;;15.70;5.50;;;6.90;99.90;;;;;;4992413;28;20031;-94
2022/11/20 08:02:59;;;;;;;27.02;7.05;;;6.90;99.90;;;;;;5000381;28;20057;-94
2022/11/20 08:05:24;;;;;;;20.92;5.75;;;6.90;99.90;;;;;;4985743;28;20045;-95
2022/11/20 08:07:50;;;;;;;24.75;6.15;;;6.90;99.90;;;;;;4988642;28;20027;-96
2022/11/20 08:10:16;;;;;;;20.63;5.95;;;6.90;99.90;;;;;;4972240;28;20057;-94
2022/11/20 08:15:35;;;;;;;21.40;5.78;;;6.90;99.90;;;;;;4969763;28;20500;-93
2022/11/20 08:18:06;;;;;;;15.60;4.97;;;6.90;99.90;;;;;;4970709;28;20053;-94
2022/11/20 08:20:32;;;;;;;20.17;4.50;;;7.00;99.90;;;;;;4965247;28;20031;-95
2022/11/20 08:23:02;;;;;;;23.35;4.78;;;6.90;99.90;;;;;;4988521;28;20023;-94
2022/11/20 08:25:29;;;;;;;19.80;4.82;;;6.90;99.90;;;;;;4977233;28;20027;-93
2022/11/20 08:28:00;;;;;;;16.15;3.50;;;7.00;99.90;;;;;;4981116;28;20062;-90
2022/11/20 08:30:27;;;;;;;14.63;4.15;;;7.00;99.90;;;;;;4982351;28;20011;-92
2022/11/20 08:32:53;;;;;;;15.13;5.68;;;7.00;99.90;;;;;;4984210;28;20015;-90
2022/11/20 08:35:19;;;;;;;14.65;4.00;;;7.00;99.90;;;;;;4991127;28;20027;-91
2022/11/20 08:37:49;;;;;;;17.25;3.95;;;7.00;99.90;;;;;;4992528;28;20026;-94
2022/11/20 08:40:15;;;;;;;19.10;3.75;;;7.00;99.90;;;;;;5004303;28;20002;-91
2022/11/20 08:42:49;;;;;;;23.00;4.90;;;7.00;99.90;;;;;;4990597;28;20042;-92
2022/11/20 08:45:18;;;;;;;23.90;3.53;;;7.00;99.90;;;;;;4985262;28;20090;-92
2022/11/20 08:47:45;;;;;;;28.17;3.83;;;7.00;99.90;;;;;;4965104;28;20031;-94
2022/11/20 08:50:13;;;;;;;16.67;4.18;;;7.10;99.90;;;;;;4978469;28;20045;-95
2022/11/20 08:52:45;;;;;;;45.55;3.85;;;7.00;99.90;;;;;;4958271;28;20082;-94
2022/11/20 08:55:15;;;;;;;19.38;3.55;;;7.10;99.90;;;;;;4967978;28;20023;-94
2022/11/20 08:57:44;;;;;;;30.13;4.40;;;7.10;99.90;;;;;;4971914;28;20033;-93
2022/11/20 09:00:14;;;;;;;17.40;3.03;;;7.10;99.90;;;;;;4975386;28;20045;-94
2022/11/20 09:02:43;;;;;;;;;;;7.10;99.90;;;;;;4988992;28;20058;-93
2022/11/20 09:05:09;;;;;;;28.67;4.75;;;7.10;99.90;;;;;;4991225;28;19914;-94
2022/11/20 09:07:41;;;;;;;24.02;5.10;;;7.10;99.90;;;;;;4973659;28;20023;-94
2022/11/20 09:10:10;;;;;;;27.30;4.28;;;7.10;99.90;;;;;;4980045;28;20056;-94
2022/11/20 09:12:38;;;;;;;26.77;5.55;;;7.20;99.90;;;;;;4974889;28;20042;-95
2022/11/20 09:15:04;;;;;;;32.03;4.95;;;7.20;99.90;;;;;;4972529;28;20019;-94
2022/11/20 09:17:31;;;;;;;23.35;5.15;;;7.20;99.90;;;;;;4982431;28;20045;-94
2022/11/20 09:20:00;;;;;;;33.13;5.05;;;7.20;99.90;;;;;;4980570;28;20028;-95
2022/11/20 09:22:27;;;;;;;23.27;5.20;;;7.20;99.90;;;;;;4976595;28;20047;-94
2022/11/20 09:24:53;;;;;;;17.65;3.83;;;7.20;99.90;;;;;;4995916;28;20018;-94
2022/11/20 09:27:23;;;;;;;25.05;4.60;;;7.20;99.90;;;;;;4964676;28;20098;-95
2022/11/20 09:29:49;;;;;;;27.17;4.50;;;7.20;99.90;;;;;;4985177;28;20006;-94
2022/11/20 09:32:14;;;;;;;19.15;3.60;;;7.30;99.90;;;;;;4979839;28;20086;-93
2022/11/20 09:34:41;;;;;;;28.17;4.22;;;7.30;99.90;;;;;;4973644;28;20015;-94
2022/11/20 09:37:09;;;;;;;24.55;4.68;;;7.30;99.90;;;;;;4963485;28;20047;-94
2022/11/20 09:39:38;;;;;;;27.48;4.97;;;7.40;99.90;;;;;;4965325;28;20016;-94
2022/11/20 09:42:26;;;;;;;29.42;5.03;;;7.50;99.90;;;;;;4981939;28;20031;-93
2022/11/20 09:45:16;;;;;;;20.33;3.85;;;7.50;99.90;;;;;;4997819;28;20018;-93
2022/11/20 09:48:04;;;;;;;26.25;3.22;;;7.60;99.90;;;;;;5001753;28;20070;-94
2022/11/20 09:50:48;;;;;;;18.75;3.13;;;7.70;99.90;;;;;;4971303;28;20063;-94
2022/11/20 09:53:43;;;;;;;25.92;4.13;;;7.80;99.90;;;;;;4981091;28;20083;-94
2022/11/20 09:56:11;;;;;;;21.55;3.45;;;7.80;99.90;;;;;;4976930;28;20055;-94
2022/11/20 09:58:51;;;;;;;17.52;3.10;;;7.90;99.90;;;;;;4992955;28;20041;-95
2022/11/20 10:01:32;;;;;;;19.90;2.33;;;8.00;99.90;;;;;;4990394;28;20042;-93
2022/11/20 10:04:20;;;;;;;17.65;2.28;;;8.10;99.90;;;;;;4995477;28;20043;-93
2022/11/20 10:07:05;;;;;;;16.05;2.30;;;8.20;99.90;;;;;;4989969;28;20046;-94
2022/11/20 10:09:38;;;;;;;12.60;2.58;;;8.50;99.90;;;;;;4993952;28;20015;-94
2022/11/20 10:12:13;;;;;;;15.40;2.30;;;8.90;99.90;;;;;;4993947;28;20018;-94
2022/11/20 10:15:00;;;;;;;14.80;1.90;;;9.10;99.90;;;;;;4997273;28;20054;-94
2022/11/20 10:18:03;;;;;;;22.40;2.25;;;9.30;99.90;;;;;;5007001;28;20030;-93
2022/11/20 10:20:52;;;;;;;18.42;3.10;;;9.30;99.90;;;;;;4991355;28;20031;-95
2022/11/20 10:23:42;;;;;;;18.50;2.28;;;9.40;99.90;;;;;;4999754;28;20078;-95
2022/11/20 10:26:21;;;;;;;13.80;2.40;;;9.40;99.90;;;;;;5414329;23;20069;-94
2022/11/20 10:29:22;;;;;;;15.57;2.42;;;9.60;99.90;;;;;;4976235;28;20038;-93
2022/11/20 10:32:00;;;;;;;12.50;2.15;;;9.90;99.90;;;;;;4972796;28;20026;-94
2022/11/20 10:34:28;;;;;;;13.85;2.40;;;10.40;99.90;;;;;;4971990;28;20036;-94
2022/11/20 10:37:08;;;;;;;18.15;2.60;;;10.60;99.90;;;;;;4973351;28;20043;-94
2022/11/20 10:40:04;;;;;;;18.42;2.65;;;10.70;99.90;;;;;;4972604;28;20018;-95
2022/11/20 10:42:54;;;;;;;20.30;2.85;;;10.80;99.90;;;;;;4983391;28;20011;-94
2022/11/20 10:45:28;;;;;;;12.93;2.80;;;10.90;99.90;;;;;;4990415;28;20112;-93
2022/11/20 10:48:13;;;;;;;18.80;3.08;;;11.20;99.90;;;;;;4992222;28;20039;-94
2022/11/20 10:50:54;;;;;;;18.90;2.63;;;11.40;99.90;;;;;;4970480;28;20023;-95
2022/11/20 10:54:00;;;;;;;18.75;3.00;;;11.70;99.90;;;;;;4982124;28;20011;-95
2022/11/20 10:56:50;;;;;;;15.25;2.88;;;11.80;99.90;;;;;;4977111;28;20039;-95
2022/11/20 10:59:27;;;;;;;17.90;2.80;;;12.00;99.90;;;;;;4994940;28;20019;-93
2022/11/20 11:01:57;;;;;;;17.70;3.10;;;12.20;99.90;;;;;;4991605;28;20102;-95
2022/11/20 11:04:48;;;;;;;14.23;2.92;;;12.30;99.90;;;;;;4977390;28;20010;-95
2022/11/20 11:07:25;;;;;;;19.50;3.72;;;12.50;99.90;;;;;;4980304;28;20208;-93
2022/11/20 11:09:53;;;;;;;15.57;3.55;;;12.90;99.90;;;;;;4986438;28;20012;-94
2022/11/20 11:12:31;;;;;;;19.23;2.97;;;13.10;99.90;;;;;;4979843;28;20083;-94
2022/11/20 11:14:58;;;;;;;17.58;2.53;;;13.30;99.90;;;;;;4979706;28;20022;-95
2022/11/20 11:17:29;;;;;;;20.05;3.70;;;13.30;99.90;;;;;;4960644;28;20035;-95
2022/11/20 11:20:06;;;;;;;18.08;2.80;;;13.40;99.90;;;;;;4971361;28;20015;-95
2022/11/20 11:22:42;;;;;;;17.08;3.28;;;13.40;99.90;;;;;;4973073;28;20039;-94
2022/11/20 11:25:35;;;;;;;17.88;2.92;;;13.30;99.90;;;;;;4977080;28;20098;-96
2022/11/20 11:28:24;;;;;;;16.40;2.80;;;13.40;99.90;;;;;;4983831;28;20054;-92
2022/11/20 11:30:57;;;;;;;12.70;2.78;;;13.40;99.90;;;;;;4978493;28;20023;-93
2022/11/20 11:33:33;;;;;;;24.10;3.70;;;13.40;99.90;;;;;;4974543;28;20083;-95
2022/11/20 11:36:27;;;;;;;12.20;1.73;;;13.50;99.90;;;;;;4979962;28;20043;-95
2022/11/20 11:38:54;;;;;;;20.05;3.00;;;13.50;99.90;;;;;;4980685;28;20015;-95
2022/11/20 11:41:36;;;;;;;13.32;2.92;;;13.50;99.80;;;;;;4981309;28;20027;-95
2022/11/20 11:47:37;;;;;;;19.38;3.13;;;13.70;98.80;;;;;;4999050;28;20042;-94
2022/11/20 11:50:23;;;;;;;;;;;13.90;98.50;;;;;;4997935;28;20027;-94
2022/11/20 11:53:26;;;;;;;19.15;4.43;;;14.20;98.40;;;;;;4996200;28;20006;-94
2022/11/20 11:56:09;;;;;;;15.52;3.60;;;14.40;96.80;;;;;;4977059;28;20031;-94
2022/11/20 11:58:55;;;;;;;16.63;2.78;;;14.50;96.00;;;;;;4965263;28;20042;-96
2022/11/20 12:01:58;;;;;;;15.25;3.97;;;14.70;94.60;;;;;;4981882;28;20030;-94
2022/11/20 12:04:57;;;;;;;17.77;3.60;;;14.60;93.40;;;;;;4996442;28;20038;-95
2022/11/20 12:08:58;;;;;;;14.18;3.22;;;14.70;93.00;;;;;;4978299;28;20033;-94
2022/11/20 12:11:45;;;;;;;15.52;2.65;;;14.80;92.40;;;;;;4915782;29;20092;-95
2022/11/20 12:14:27;;;;;;;16.35;3.03;;;14.90;91.90;;;;;;4904154;29;20037;-95
2022/11/20 12:17:03;;;;;;;15.35;2.80;;;15.10;91.20;;;;;;4914885;29;20028;-96
2022/11/20 12:19:41;;;;;;;12.57;2.38;;;15.10;90.60;;;;;;4917202;29;20503;-94
2022/11/20 12:22:28;;;;;;;13.05;2.50;;;15.00;89.90;;;;;;4914361;29;20036;-93
2022/11/20 12:25:25;;;;;;;12.30;2.85;;;14.90;90.00;;;;;;4916397;29;20103;-94
2022/11/20 12:27:56;;;;;;;15.82;3.00;;;14.90;90.30;;;;;;4912736;29;20065;-95
2022/11/20 12:30:24;;;;;;;15.77;3.38;;;14.60;90.00;;;;;;4916102;29;20025;-94
2022/11/20 12:33:15;;;;;;;23.75;3.58;;;14.10;90.30;;;;;;4897693;29;20036;-94
2022/11/20 12:35:56;;;;;;;22.50;3.63;;;13.60;90.70;;;;;;4912065;29;20564;-94
2022/11/20 12:38:31;;;;;;;19.45;3.03;;;13.10;91.70;;;;;;4914065;29;20084;-94
2022/11/20 12:41:04;;;;;;;23.23;3.00;;;12.70;92.40;;;;;;4907766;29;20123;-95
2022/11/20 12:46:46;;;;;;;15.90;2.83;;;12.00;93.90;;;;;;4966359;28;20065;-95
2022/11/20 12:49:37;;;;;;;16.20;2.70;;;11.90;94.70;;;;;;4951378;29;20055;-95
2022/11/20 12:52:03;;;;;;;15.88;2.58;;;11.90;95.40;;;;;;4958176;29;20046;-94
2022/11/20 12:54:38;;;;;;;18.58;2.33;;;11.90;95.60;;;;;;4953749;28;20098;-94
2022/11/20 12:57:49;;;;;;;15.50;2.47;;;11.90;95.70;;;;;;4954047;29;20093;-96
2022/11/20 13:00:20;;;;;;;16.65;2.65;;;11.90;95.60;;;;;;4946080;29;20023;-94
2022/11/20 13:03:13;;;;;;;26.30;3.25;;;11.80;95.80;;;;;;4947360;28;20035;-94
2022/11/20 13:06:20;;;;;;;13.57;2.35;;;11.70;96.00;;;;;;4945604;29;20027;-92
2022/11/20 13:08:56;;;;;;;14.40;2.38;;;11.40;96.00;;;;;;4945034;29;20028;-94
2022/11/20 13:11:33;;;;;;;26.67;4.32;;;11.30;96.50;;;;;;4944051;28;20023;-96
2022/11/20 13:14:04;;;;;;;15.07;2.60;;;11.10;96.80;;;;;;4944531;29;20098;-94
2022/11/20 13:16:44;;;;;;;17.52;3.08;;;11.00;97.20;;;;;;4943687;29;20039;-95
2022/11/20 13:19:16;;;;;;;18.48;2.70;;;10.90;97.70;;;;;;4945969;29;20044;-94